sensor_id;sensor_type;location;lat;lon;timestamp;P1;durP1;ratioP1;P2;durP2;ratioP2
6842;SDS011;3460;52.028;8.916;2022-11-15T00:01:06;7.40;;;5.10;;
6842;SDS011;3460;52.028;8.916;2022-11-15T00:03:33;10.73;;;5.70;;
6842;SDS011;3460;52.028;8.916;2022-11-15T00:06:02;9.37;;;5.87;;
6842;SDS011;3460;52.028;8.916;2022-11-15T00:08:30;6.70;;;5.70;;
6842;SDS011;3460;52.028;8.916;2022-11-15T00:10:57;9.13;;;6.17;;
6842;SDS011;3460;52.028;8.916;2022-11-15T00:13:25;7.93;;;5.50;;
6842;SDS011;3460;52.028;8.916;2022-11-15T00:15:51;6.40;;;5.10;;
6842;SDS011;3460;52.028;8.916;2022-11-15T00:18:18;8.40;;;6.07;;
6842;SDS011;3460;52.028;8.916;2022-11-15T00:20:45;7.90;;;5.57;;
6842;SDS011;3460;52.028;8.916;2022-11-15T00:23:13;6.53;;;5.53;;
6842;SDS011;3460;52.028;8.916;2022-11-15T00:25:40;8.53;;;5.27;;
6842;SDS011;3460;52.028;8.916;2022-11-15T00:28:06;8.57;;;5.60;;
6842;SDS011;3460;52.028;8.916;2022-11-15T00:30:33;7.80;;;5.33;;
6842;SDS011;3460;52.028;8.916;2022-11-15T00:33:01;9.17;;;6.30;;
6842;SDS011;3460;52.028;8.916;2022-11-15T00:35:28;8.30;;;6.10;;
6842;SDS011;3460;52.028;8.916;2022-11-15T00:37:57;9.17;;;7.07;;
6842;SDS011;3460;52.028;8.916;2022-11-15T00:40:25;11.40;;;6.70;;
6842;SDS011;3460;52.028;8.916;2022-11-15T00:42:52;11.50;;;6.60;;
6842;SDS011;3460;52.028;8.916;2022-11-15T00:45:18;10.70;;;7.20;;
6842;SDS011;3460;52.028;8.916;2022-11-15T00:47:45;11.00;;;6.87;;
6842;SDS011;3460;52.028;8.916;2022-11-15T00:50:13;9.73;;;6.80;;
6842;SDS011;3460;52.028;8.916;2022-11-15T00:52:39;10.73;;;6.90;;
6842;SDS011;3460;52.028;8.916;2022-11-15T00:55:06;11.50;;;6.87;;
6842;SDS011;3460;52.028;8.916;2022-11-15T00:57:36;11.63;;;7.20;;
6842;SDS011;3460;52.028;8.916;2022-11-15T01:00:04;9.93;;;7.33;;
6842;SDS011;3460;52.028;8.916;2022-11-15T01:02:32;12.07;;;6.83;;
6842;SDS011;3460;52.028;8.916;2022-11-15T01:04:59;10.70;;;7.10;;
6842;SDS011;3460;52.028;8.916;2022-11-15T01:07:25;10.03;;;7.73;;
6842;SDS011;3460;52.028;8.916;2022-11-15T01:09:52;13.43;;;8.30;;
6842;SDS011;3460;52.028;8.916;2022-11-15T01:12:19;11.20;;;7.70;;
6842;SDS011;3460;52.028;8.916;2022-11-15T01:14:47;10.90;;;7.20;;
6842;SDS011;3460;52.028;8.916;2022-11-15T01:17:13;10.03;;;7.77;;
6842;SDS011;3460;52.028;8.916;2022-11-15T01:19:40;11.93;;;8.20;;
6842;SDS011;3460;52.028;8.916;2022-11-15T01:22:07;11.87;;;7.87;;
6842;SDS011;3460;52.028;8.916;2022-11-15T01:24:33;11.97;;;8.50;;
6842;SDS011;3460;52.028;8.916;2022-11-15T01:27:00;12.83;;;7.87;;
6842;SDS011;3460;52.028;8.916;2022-11-15T01:29:27;15.03;;;8.10;;
6842;SDS011;3460;52.028;8.916;2022-11-15T01:31:55;11.00;;;8.00;;
6842;SDS011;3460;52.028;8.916;2022-11-15T01:34:21;12.07;;;8.40;;
6842;SDS011;3460;52.028;8.916;2022-11-15T01:36:48;12.57;;;8.40;;
6842;SDS011;3460;52.028;8.916;2022-11-15T01:39:15;12.13;;;7.73;;
6842;SDS011;3460;52.028;8.916;2022-11-15T01:41:42;12.67;;;7.50;;
6842;SDS011;3460;52.028;8.916;2022-11-15T01:47:05;11.90;;;7.60;;
6842;SDS011;3460;52.028;8.916;2022-11-15T01:49:35;14.43;;;8.40;;
6842;SDS011;3460;52.028;8.916;2022-11-15T01:52:06;14.70;;;8.30;;
6842;SDS011;3460;52.028;8.916;2022-11-15T01:54:35;11.27;;;8.23;;
6842;SDS011;3460;52.028;8.916;2022-11-15T01:57:03;14.50;;;8.70;;
6842;SDS011;3460;52.028;8.916;2022-11-15T01:59:32;14.23;;;8.50;;
6842;SDS011;3460;52.028;8.916;2022-11-15T02:02:00;10.33;;;7.87;;
6842;SDS011;3460;52.028;8.916;2022-11-15T02:04:29;10.27;;;7.63;;
6842;SDS011;3460;52.028;8.916;2022-11-15T02:06:59;10.87;;;8.40;;
6842;SDS011;3460;52.028;8.916;2022-11-15T02:09:27;13.47;;;8.47;;
6842;SDS011;3460;52.028;8.916;2022-11-15T02:11:55;15.20;;;8.00;;
6842;SDS011;3460;52.028;8.916;2022-11-15T02:14:22;14.43;;;8.33;;
6842;SDS011;3460;52.028;8.916;2022-11-15T02:16:52;13.23;;;8.50;;
6842;SDS011;3460;52.028;8.916;2022-11-15T02:19:34;17.90;;;9.50;;
6842;SDS011;3460;52.028;8.916;2022-11-15T02:22:24;14.37;;;9.63;;
6842;SDS011;3460;52.028;8.916;2022-11-15T02:25:04;13.87;;;8.93;;
6842;SDS011;3460;52.028;8.916;2022-11-15T02:30:42;15.93;;;9.47;;
6842;SDS011;3460;52.028;8.916;2022-11-15T02:33:14;14.60;;;9.87;;
6842;SDS011;3460;52.028;8.916;2022-11-15T02:35:52;13.57;;;9.90;;
6842;SDS011;3460;52.028;8.916;2022-11-15T02:38:27;12.50;;;9.73;;
6842;SDS011;3460;52.028;8.916;2022-11-15T02:40:58;15.67;;;9.97;;
6842;SDS011;3460;52.028;8.916;2022-11-15T02:43:29;12.57;;;9.37;;
6842;SDS011;3460;52.028;8.916;2022-11-15T02:46:19;12.73;;;9.63;;
6842;SDS011;3460;52.028;8.916;2022-11-15T02:49:12;13.30;;;9.83;;
6842;SDS011;3460;52.028;8.916;2022-11-15T02:51:40;19.13;;;10.60;;
6842;SDS011;3460;52.028;8.916;2022-11-15T02:54:11;18.83;;;10.87;;
6842;SDS011;3460;52.028;8.916;2022-11-15T02:56:40;16.50;;;10.53;;
6842;SDS011;3460;52.028;8.916;2022-11-15T02:59:13;19.70;;;11.40;;
6842;SDS011;3460;52.028;8.916;2022-11-15T03:01:56;14.23;;;10.77;;
6842;SDS011;3460;52.028;8.916;2022-11-15T03:04:36;19.20;;;10.10;;
6842;SDS011;3460;52.028;8.916;2022-11-15T03:07:10;14.17;;;10.30;;
6842;SDS011;3460;52.028;8.916;2022-11-15T03:09:42;15.67;;;10.40;;
6842;SDS011;3460;52.028;8.916;2022-11-15T03:12:20;17.17;;;11.67;;
6842;SDS011;3460;52.028;8.916;2022-11-15T03:14:53;20.17;;;13.50;;
6842;SDS011;3460;52.028;8.916;2022-11-15T03:17:25;18.17;;;12.33;;
6842;SDS011;3460;52.028;8.916;2022-11-15T03:19:54;15.73;;;10.63;;
6842;SDS011;3460;52.028;8.916;2022-11-15T03:22:24;14.53;;;10.87;;
6842;SDS011;3460;52.028;8.916;2022-11-15T03:24:54;14.90;;;10.23;;
6842;SDS011;3460;52.028;8.916;2022-11-15T03:27:25;14.20;;;9.90;;
6842;SDS011;3460;52.028;8.916;2022-11-15T03:29:56;17.90;;;10.53;;
6842;SDS011;3460;52.028;8.916;2022-11-15T03:32:28;11.00;;;9.20;;
6842;SDS011;3460;52.028;8.916;2022-11-15T03:34:57;15.20;;;10.07;;
6842;SDS011;3460;52.028;8.916;2022-11-15T03:37:29;18.47;;;11.73;;
6842;SDS011;3460;52.028;8.916;2022-11-15T03:40:00;15.07;;;11.43;;
6842;SDS011;3460;52.028;8.916;2022-11-15T03:42:28;13.67;;;10.27;;
6842;SDS011;3460;52.028;8.916;2022-11-15T03:45:01;17.13;;;10.83;;
6842;SDS011;3460;52.028;8.916;2022-11-15T03:47:34;14.53;;;10.40;;
6842;SDS011;3460;52.028;8.916;2022-11-15T03:50:06;15.50;;;10.53;;
6842;SDS011;3460;52.028;8.916;2022-11-15T03:52:36;13.90;;;9.83;;
6842;SDS011;3460;52.028;8.916;2022-11-15T03:55:03;17.37;;;10.93;;
6842;SDS011;3460;52.028;8.916;2022-11-15T03:57:32;16.67;;;9.33;;
6842;SDS011;3460;52.028;8.916;2022-11-15T03:59:59;14.77;;;10.67;;
6842;SDS011;3460;52.028;8.916;2022-11-15T04:02:25;15.47;;;11.40;;
6842;SDS011;3460;52.028;8.916;2022-11-15T04:04:54;17.43;;;10.23;;
6842;SDS011;3460;52.028;8.916;2022-11-15T04:07:21;15.30;;;10.43;;
6842;SDS011;3460;52.028;8.916;2022-11-15T04:09:48;14.57;;;10.27;;
6842;SDS011;3460;52.028;8.916;2022-11-15T04:12:30;13.77;;;9.77;;
6842;SDS011;3460;52.028;8.916;2022-11-15T04:14:58;11.27;;;8.90;;
6842;SDS011;3460;52.028;8.916;2022-11-15T04:17:36;14.53;;;9.10;;
6842;SDS011;3460;52.028;8.916;2022-11-15T04:20:06;14.00;;;8.73;;
6842;SDS011;3460;52.028;8.916;2022-11-15T04:22:53;12.60;;;9.43;;
6842;SDS011;3460;52.028;8.916;2022-11-15T04:25:38;13.80;;;9.33;;
6842;SDS011;3460;52.028;8.916;2022-11-15T04:28:05;12.53;;;8.83;;
6842;SDS011;3460;52.028;8.916;2022-11-15T04:30:31;11.00;;;8.73;;
6842;SDS011;3460;52.028;8.916;2022-11-15T04:32:58;13.00;;;8.57;;
6842;SDS011;3460;52.028;8.916;2022-11-15T04:35:26;12.97;;;8.13;;
6842;SDS011;3460;52.028;8.916;2022-11-15T04:37:53;12.10;;;9.17;;
6842;SDS011;3460;52.028;8.916;2022-11-15T04:40:19;15.17;;;9.33;;
6842;SDS011;3460;52.028;8.916;2022-11-15T04:42:46;14.17;;;9.40;;
6842;SDS011;3460;52.028;8.916;2022-11-15T04:45:13;13.07;;;9.30;;
6842;SDS011;3460;52.028;8.916;2022-11-15T04:47:40;15.30;;;9.80;;
6842;SDS011;3460;52.028;8.916;2022-11-15T04:50:09;13.97;;;9.23;;
6842;SDS011;3460;52.028;8.916;2022-11-15T04:52:39;14.40;;;9.20;;
6842;SDS011;3460;52.028;8.916;2022-11-15T04:55:06;16.10;;;10.70;;
6842;SDS011;3460;52.028;8.916;2022-11-15T04:57:33;10.90;;;9.10;;
6842;SDS011;3460;52.028;8.916;2022-11-15T05:00:02;13.93;;;9.87;;
6842;SDS011;3460;52.028;8.916;2022-11-15T05:02:30;17.13;;;10.93;;
6842;SDS011;3460;52.028;8.916;2022-11-15T05:05:10;13.17;;;10.13;;
6842;SDS011;3460;52.028;8.916;2022-11-15T05:07:39;13.10;;;9.33;;
6842;SDS011;3460;52.028;8.916;2022-11-15T05:10:06;16.40;;;10.30;;
6842;SDS011;3460;52.028;8.916;2022-11-15T05:12:35;16.33;;;9.37;;
6842;SDS011;3460;52.028;8.916;2022-11-15T05:15:02;12.77;;;9.40;;
6842;SDS011;3460;52.028;8.916;2022-11-15T05:17:29;13.00;;;9.90;;
6842;SDS011;3460;52.028;8.916;2022-11-15T05:19:56;12.67;;;9.80;;
6842;SDS011;3460;52.028;8.916;2022-11-15T05:22:23;17.47;;;10.57;;
6842;SDS011;3460;52.028;8.916;2022-11-15T05:24:51;14.33;;;9.87;;
6842;SDS011;3460;52.028;8.916;2022-11-15T05:27:17;12.90;;;9.60;;
6842;SDS011;3460;52.028;8.916;2022-11-15T05:29:44;13.30;;;10.23;;
6842;SDS011;3460;52.028;8.916;2022-11-15T05:32:11;15.97;;;10.77;;
6842;SDS011;3460;52.028;8.916;2022-11-15T05:34:38;13.83;;;10.07;;
6842;SDS011;3460;52.028;8.916;2022-11-15T05:37:05;11.47;;;7.93;;
6842;SDS011;3460;52.028;8.916;2022-11-15T05:39:32;10.73;;;8.13;;
6842;SDS011;3460;52.028;8.916;2022-11-15T05:42:00;10.53;;;7.87;;
6842;SDS011;3460;52.028;8.916;2022-11-15T05:44:31;10.70;;;7.57;;
6842;SDS011;3460;52.028;8.916;2022-11-15T05:46:59;12.17;;;7.60;;
6842;SDS011;3460;52.028;8.916;2022-11-15T05:49:28;11.43;;;7.90;;
6842;SDS011;3460;52.028;8.916;2022-11-15T05:51:57;12.33;;;8.30;;
6842;SDS011;3460;52.028;8.916;2022-11-15T05:54:24;9.27;;;7.27;;
6842;SDS011;3460;52.028;8.916;2022-11-15T05:56:52;10.67;;;7.97;;
6842;SDS011;3460;52.028;8.916;2022-11-15T05:59:22;9.90;;;8.03;;
6842;SDS011;3460;52.028;8.916;2022-11-15T06:01:49;9.70;;;7.17;;
6842;SDS011;3460;52.028;8.916;2022-11-15T06:04:15;11.73;;;7.50;;
6842;SDS011;3460;52.028;8.916;2022-11-15T06:06:42;10.30;;;7.50;;
6842;SDS011;3460;52.028;8.916;2022-11-15T06:09:09;11.83;;;7.50;;
6842;SDS011;3460;52.028;8.916;2022-11-15T06:11:36;9.70;;;6.90;;
6842;SDS011;3460;52.028;8.916;2022-11-15T06:14:02;9.13;;;6.97;;
6842;SDS011;3460;52.028;8.916;2022-11-15T06:16:31;10.80;;;7.23;;
6842;SDS011;3460;52.028;8.916;2022-11-15T06:18:57;12.60;;;7.30;;
6842;SDS011;3460;52.028;8.916;2022-11-15T06:21:24;9.60;;;6.57;;
6842;SDS011;3460;52.028;8.916;2022-11-15T06:23:52;7.87;;;7.07;;
6842;SDS011;3460;52.028;8.916;2022-11-15T06:26:19;8.50;;;7.03;;
6842;SDS011;3460;52.028;8.916;2022-11-15T06:28:46;10.40;;;7.40;;
6842;SDS011;3460;52.028;8.916;2022-11-15T06:31:13;10.07;;;7.47;;
6842;SDS011;3460;52.028;8.916;2022-11-15T06:33:41;8.83;;;7.20;;
6842;SDS011;3460;52.028;8.916;2022-11-15T06:36:08;10.17;;;6.83;;
6842;SDS011;3460;52.028;8.916;2022-11-15T06:38:38;9.33;;;6.33;;
6842;SDS011;3460;52.028;8.916;2022-11-15T06:41:06;10.20;;;6.80;;
6842;SDS011;3460;52.028;8.916;2022-11-15T06:43:34;8.97;;;7.00;;
6842;SDS011;3460;52.028;8.916;2022-11-15T06:46:02;8.50;;;7.03;;
6842;SDS011;3460;52.028;8.916;2022-11-15T06:48:30;8.17;;;6.67;;
6842;SDS011;3460;52.028;8.916;2022-11-15T06:51:00;9.07;;;6.83;;
6842;SDS011;3460;52.028;8.916;2022-11-15T06:53:27;8.73;;;6.10;;
6842;SDS011;3460;52.028;8.916;2022-11-15T06:55:58;7.27;;;6.17;;
6842;SDS011;3460;52.028;8.916;2022-11-15T06:58:26;8.23;;;6.37;;
6842;SDS011;3460;52.028;8.916;2022-11-15T07:00:52;8.90;;;6.13;;
6842;SDS011;3460;52.028;8.916;2022-11-15T07:03:20;10.57;;;6.33;;
6842;SDS011;3460;52.028;8.916;2022-11-15T07:05:50;7.23;;;5.67;;
6842;SDS011;3460;52.028;8.916;2022-11-15T07:08:19;8.20;;;6.13;;
6842;SDS011;3460;52.028;8.916;2022-11-15T07:10:46;8.80;;;6.53;;
6842;SDS011;3460;52.028;8.916;2022-11-15T07:13:13;8.03;;;5.80;;
6842;SDS011;3460;52.028;8.916;2022-11-15T07:15:39;12.27;;;6.60;;
6842;SDS011;3460;52.028;8.916;2022-11-15T07:18:06;11.93;;;5.93;;
6842;SDS011;3460;52.028;8.916;2022-11-15T07:20:34;11.63;;;6.00;;
6842;SDS011;3460;52.028;8.916;2022-11-15T07:23:01;8.77;;;5.90;;
6842;SDS011;3460;52.028;8.916;2022-11-15T07:25:30;8.60;;;5.70;;
6842;SDS011;3460;52.028;8.916;2022-11-15T07:27:57;8.03;;;5.33;;
6842;SDS011;3460;52.028;8.916;2022-11-15T07:30:25;8.93;;;6.20;;
6842;SDS011;3460;52.028;8.916;2022-11-15T07:32:53;7.27;;;5.57;;
6842;SDS011;3460;52.028;8.916;2022-11-15T07:35:20;8.37;;;5.97;;
6842;SDS011;3460;52.028;8.916;2022-11-15T07:37:52;10.10;;;6.10;;
6842;SDS011;3460;52.028;8.916;2022-11-15T07:40:19;10.10;;;5.70;;
6842;SDS011;3460;52.028;8.916;2022-11-15T07:42:48;9.50;;;6.17;;
6842;SDS011;3460;52.028;8.916;2022-11-15T07:45:21;10.07;;;5.57;;
6842;SDS011;3460;52.028;8.916;2022-11-15T07:47:48;10.57;;;5.90;;
6842;SDS011;3460;52.028;8.916;2022-11-15T07:50:16;7.17;;;5.40;;
6842;SDS011;3460;52.028;8.916;2022-11-15T07:52:43;6.57;;;5.50;;
6842;SDS011;3460;52.028;8.916;2022-11-15T07:55:09;13.83;;;5.60;;
6842;SDS011;3460;52.028;8.916;2022-11-15T07:57:36;7.57;;;5.43;;
6842;SDS011;3460;52.028;8.916;2022-11-15T08:00:05;8.33;;;5.90;;
6842;SDS011;3460;52.028;8.916;2022-11-15T08:02:32;7.57;;;5.60;;
6842;SDS011;3460;52.028;8.916;2022-11-15T08:04:59;7.77;;;5.20;;
6842;SDS011;3460;52.028;8.916;2022-11-15T08:07:28;8.17;;;5.40;;
6842;SDS011;3460;52.028;8.916;2022-11-15T08:09:55;7.17;;;5.23;;
6842;SDS011;3460;52.028;8.916;2022-11-15T08:12:21;7.07;;;5.63;;
6842;SDS011;3460;52.028;8.916;2022-11-15T08:14:48;12.27;;;6.30;;
6842;SDS011;3460;52.028;8.916;2022-11-15T08:17:17;6.87;;;5.00;;
6842;SDS011;3460;52.028;8.916;2022-11-15T08:19:43;6.73;;;5.20;;
6842;SDS011;3460;52.028;8.916;2022-11-15T08:22:10;7.57;;;5.07;;
6842;SDS011;3460;52.028;8.916;2022-11-15T08:24:37;6.87;;;5.07;;
6842;SDS011;3460;52.028;8.916;2022-11-15T08:27:03;8.10;;;5.00;;
6842;SDS011;3460;52.028;8.916;2022-11-15T08:29:30;7.60;;;4.27;;
6842;SDS011;3460;52.028;8.916;2022-11-15T08:31:57;6.13;;;4.60;;
6842;SDS011;3460;52.028;8.916;2022-11-15T08:34:25;9.10;;;5.20;;
6842;SDS011;3460;52.028;8.916;2022-11-15T08:36:51;6.10;;;4.60;;
6842;SDS011;3460;52.028;8.916;2022-11-15T08:39:18;6.17;;;4.60;;
6842;SDS011;3460;52.028;8.916;2022-11-15T08:41:45;6.47;;;4.57;;
6842;SDS011;3460;52.028;8.916;2022-11-15T08:44:11;7.87;;;4.30;;
6842;SDS011;3460;52.028;8.916;2022-11-15T08:46:38;7.23;;;4.50;;
6842;SDS011;3460;52.028;8.916;2022-11-15T08:49:05;7.33;;;4.50;;
6842;SDS011;3460;52.028;8.916;2022-11-15T08:51:33;6.60;;;4.43;;
6842;SDS011;3460;52.028;8.916;2022-11-15T08:54:00;8.20;;;4.10;;
6842;SDS011;3460;52.028;8.916;2022-11-15T08:56:26;4.60;;;3.70;;
6842;SDS011;3460;52.028;8.916;2022-11-15T08:58:53;4.90;;;3.77;;
6842;SDS011;3460;52.028;8.916;2022-11-15T09:01:20;4.93;;;3.43;;
6842;SDS011;3460;52.028;8.916;2022-11-15T09:03:47;4.70;;;3.07;;
6842;SDS011;3460;52.028;8.916;2022-11-15T09:06:14;8.10;;;2.70;;
6842;SDS011;3460;52.028;8.916;2022-11-15T09:08:42;6.53;;;3.17;;
6842;SDS011;3460;52.028;8.916;2022-11-15T09:11:09;5.93;;;3.20;;
6842;SDS011;3460;52.028;8.916;2022-11-15T09:13:37;3.67;;;3.07;;
6842;SDS011;3460;52.028;8.916;2022-11-15T09:16:04;5.43;;;2.97;;
6842;SDS011;3460;52.028;8.916;2022-11-15T09:18:31;7.00;;;3.70;;
6842;SDS011;3460;52.028;8.916;2022-11-15T09:20:58;5.83;;;3.70;;
6842;SDS011;3460;52.028;8.916;2022-11-15T09:23:27;5.70;;;3.27;;
6842;SDS011;3460;52.028;8.916;2022-11-15T09:25:58;5.80;;;3.17;;
6842;SDS011;3460;52.028;8.916;2022-11-15T09:28:26;4.40;;;3.30;;
6842;SDS011;3460;52.028;8.916;2022-11-15T09:30:55;6.07;;;3.90;;
6842;SDS011;3460;52.028;8.916;2022-11-15T09:33:23;4.57;;;3.83;;
6842;SDS011;3460;52.028;8.916;2022-11-15T09:35:50;5.13;;;3.93;;
6842;SDS011;3460;52.028;8.916;2022-11-15T09:38:17;4.50;;;3.60;;
6842;SDS011;3460;52.028;8.916;2022-11-15T09:40:44;5.27;;;4.00;;
6842;SDS011;3460;52.028;8.916;2022-11-15T09:43:32;5.23;;;3.73;;
6842;SDS011;3460;52.028;8.916;2022-11-15T09:46:09;3.40;;;3.00;;
6842;SDS011;3460;52.028;8.916;2022-11-15T09:48:50;4.70;;;3.50;;
6842;SDS011;3460;52.028;8.916;2022-11-15T09:51:25;3.90;;;3.37;;
6842;SDS011;3460;52.028;8.916;2022-11-15T09:54:05;7.07;;;3.60;;
6842;SDS011;3460;52.028;8.916;2022-11-15T09:56:40;3.93;;;2.90;;
6842;SDS011;3460;52.028;8.916;2022-11-15T09:59:26;5.13;;;2.97;;
6842;SDS011;3460;52.028;8.916;2022-11-15T10:02:05;2.70;;;1.93;;
6842;SDS011;3460;52.028;8.916;2022-11-15T10:04:45;3.03;;;1.80;;
6842;SDS011;3460;52.028;8.916;2022-11-15T10:07:13;2.60;;;1.90;;
6842;SDS011;3460;52.028;8.916;2022-11-15T10:09:45;2.27;;;1.67;;
6842;SDS011;3460;52.028;8.916;2022-11-15T10:12:18;3.33;;;1.77;;
6842;SDS011;3460;52.028;8.916;2022-11-15T10:14:46;2.23;;;1.37;;
6842;SDS011;3460;52.028;8.916;2022-11-15T10:17:24;2.57;;;1.70;;
6842;SDS011;3460;52.028;8.916;2022-11-15T10:20:09;2.73;;;1.50;;
6842;SDS011;3460;52.028;8.916;2022-11-15T10:22:44;4.17;;;1.83;;
6842;SDS011;3460;52.028;8.916;2022-11-15T10:25:16;3.83;;;1.40;;
6842;SDS011;3460;52.028;8.916;2022-11-15T10:27:47;2.77;;;1.30;;
6842;SDS011;3460;52.028;8.916;2022-11-15T10:30:20;1.67;;;1.30;;
6842;SDS011;3460;52.028;8.916;2022-11-15T10:32:48;2.40;;;1.27;;
6842;SDS011;3460;52.028;8.916;2022-11-15T10:35:16;1.40;;;1.30;;
6842;SDS011;3460;52.028;8.916;2022-11-15T10:37:47;3.00;;;1.50;;
6842;SDS011;3460;52.028;8.916;2022-11-15T10:40:15;3.53;;;1.43;;
6842;SDS011;3460;52.028;8.916;2022-11-15T10:42:44;2.20;;;1.40;;
6842;SDS011;3460;52.028;8.916;2022-11-15T10:50:47;1.90;;;1.40;;
6842;SDS011;3460;52.028;8.916;2022-11-15T10:53:17;1.93;;;1.30;;
6842;SDS011;3460;52.028;8.916;2022-11-15T10:55:50;2.03;;;1.40;;
6842;SDS011;3460;52.028;8.916;2022-11-15T10:58:20;3.17;;;1.47;;
6842;SDS011;3460;52.028;8.916;2022-11-15T11:00:55;2.70;;;1.60;;
6842;SDS011;3460;52.028;8.916;2022-11-15T11:03:27;2.17;;;1.27;;
6842;SDS011;3460;52.028;8.916;2022-11-15T11:08:52;1.90;;;1.17;;
6842;SDS011;3460;52.028;8.916;2022-11-15T11:11:21;1.77;;;1.30;;
6842;SDS011;3460;52.028;8.916;2022-11-15T11:13:47;2.20;;;1.50;;
6842;SDS011;3460;52.028;8.916;2022-11-15T11:16:36;4.37;;;1.50;;
6842;SDS011;3460;52.028;8.916;2022-11-15T11:19:13;2.70;;;1.50;;
6842;SDS011;3460;52.028;8.916;2022-11-15T11:21:51;1.30;;;1.20;;
6842;SDS011;3460;52.028;8.916;2022-11-15T11:24:29;1.90;;;1.50;;
6842;SDS011;3460;52.028;8.916;2022-11-15T11:27:04;3.10;;;1.40;;
6842;SDS011;3460;52.028;8.916;2022-11-15T11:29:43;2.17;;;1.40;;
6842;SDS011;3460;52.028;8.916;2022-11-15T11:32:25;2.57;;;1.40;;
6842;SDS011;3460;52.028;8.916;2022-11-15T11:35:08;1.57;;;1.40;;
6842;SDS011;3460;52.028;8.916;2022-11-15T11:37:40;1.57;;;1.20;;
6842;SDS011;3460;52.028;8.916;2022-11-15T11:40:28;1.93;;;1.50;;
6842;SDS011;3460;52.028;8.916;2022-11-15T11:42:58;1.83;;;1.30;;
6842;SDS011;3460;52.028;8.916;2022-11-15T11:45:41;2.70;;;1.77;;
6842;SDS011;3460;52.028;8.916;2022-11-15T11:48:20;1.43;;;1.33;;
6842;SDS011;3460;52.028;8.916;2022-11-15T11:51:00;1.83;;;1.40;;
6842;SDS011;3460;52.028;8.916;2022-11-15T11:53:34;1.90;;;1.40;;
6842;SDS011;3460;52.028;8.916;2022-11-15T11:56:08;3.00;;;1.37;;
6842;SDS011;3460;52.028;8.916;2022-11-15T11:58:43;2.40;;;1.30;;
6842;SDS011;3460;52.028;8.916;2022-11-15T12:01:12;2.47;;;1.70;;
6842;SDS011;3460;52.028;8.916;2022-11-15T12:03:45;7.37;;;2.63;;
6842;SDS011;3460;52.028;8.916;2022-11-15T12:06:19;2.70;;;1.90;;
6842;SDS011;3460;52.028;8.916;2022-11-15T12:08:50;2.67;;;2.10;;
6842;SDS011;3460;52.028;8.916;2022-11-15T12:11:22;3.63;;;2.50;;
6842;SDS011;3460;52.028;8.916;2022-11-15T12:13:56;3.80;;;2.10;;
6842;SDS011;3460;52.028;8.916;2022-11-15T12:16:26;3.27;;;2.40;;
6842;SDS011;3460;52.028;8.916;2022-11-15T12:18:57;4.20;;;2.27;;
6842;SDS011;3460;52.028;8.916;2022-11-15T12:21:30;4.87;;;2.63;;
6842;SDS011;3460;52.028;8.916;2022-11-15T12:24:03;4.33;;;2.37;;
6842;SDS011;3460;52.028;8.916;2022-11-15T12:26:33;5.20;;;2.13;;
6842;SDS011;3460;52.028;8.916;2022-11-15T12:29:04;4.27;;;2.43;;
6842;SDS011;3460;52.028;8.916;2022-11-15T12:31:38;3.60;;;2.53;;
6842;SDS011;3460;52.028;8.916;2022-11-15T12:34:31;4.77;;;2.10;;
6842;SDS011;3460;52.028;8.916;2022-11-15T12:46:04;2.87;;;1.97;;
6842;SDS011;3460;52.028;8.916;2022-11-15T12:48:46;3.37;;;1.90;;
6842;SDS011;3460;52.028;8.916;2022-11-15T12:57:26;2.87;;;2.03;;
6842;SDS011;3460;52.028;8.916;2022-11-15T13:03:19;2.87;;;2.00;;
6842;SDS011;3460;52.028;8.916;2022-11-15T13:05:57;3.23;;;2.20;;
6842;SDS011;3460;52.028;8.916;2022-11-15T13:08:36;2.40;;;2.00;;
6842;SDS011;3460;52.028;8.916;2022-11-15T13:14:39;3.53;;;2.00;;
6842;SDS011;3460;52.028;8.916;2022-11-15T13:17:27;2.93;;;2.27;;
6842;SDS011;3460;52.028;8.916;2022-11-15T13:20:11;5.37;;;2.40;;
6842;SDS011;3460;52.028;8.916;2022-11-15T13:22:45;3.70;;;2.07;;
6842;SDS011;3460;52.028;8.916;2022-11-15T13:28:33;2.87;;;2.00;;
6842;SDS011;3460;52.028;8.916;2022-11-15T13:31:13;3.30;;;1.97;;
6842;SDS011;3460;52.028;8.916;2022-11-15T13:33:52;3.67;;;1.80;;
6842;SDS011;3460;52.028;8.916;2022-11-15T13:36:21;7.47;;;2.00;;
6842;SDS011;3460;52.028;8.916;2022-11-15T13:38:57;3.60;;;2.60;;
6842;SDS011;3460;52.028;8.916;2022-11-15T13:41:25;3.03;;;1.83;;
6842;SDS011;3460;52.028;8.916;2022-11-15T13:43:53;4.63;;;2.00;;
6842;SDS011;3460;52.028;8.916;2022-11-15T13:46:23;3.43;;;1.83;;
6842;SDS011;3460;52.028;8.916;2022-11-15T13:48:52;2.73;;;2.00;;
6842;SDS011;3460;52.028;8.916;2022-11-15T13:51:23;1.70;;;1.60;;
6842;SDS011;3460;52.028;8.916;2022-11-15T13:53:55;3.07;;;1.80;;
6842;SDS011;3460;52.028;8.916;2022-11-15T13:56:24;3.50;;;1.80;;
6842;SDS011;3460;52.028;8.916;2022-11-15T13:58:53;3.30;;;1.70;;
6842;SDS011;3460;52.028;8.916;2022-11-15T14:01:21;1.90;;;1.47;;
6842;SDS011;3460;52.028;8.916;2022-11-15T14:03:54;2.83;;;1.70;;
6842;SDS011;3460;52.028;8.916;2022-11-15T14:06:23;2.40;;;1.70;;
6842;SDS011;3460;52.028;8.916;2022-11-15T14:09:00;2.30;;;1.60;;
6842;SDS011;3460;52.028;8.916;2022-11-15T14:11:49;2.47;;;1.90;;
6842;SDS011;3460;52.028;8.916;2022-11-15T14:14:17;4.30;;;1.80;;
6842;SDS011;3460;52.028;8.916;2022-11-15T14:16:49;3.67;;;1.90;;
6842;SDS011;3460;52.028;8.916;2022-11-15T14:19:36;2.33;;;1.80;;
6842;SDS011;3460;52.028;8.916;2022-11-15T14:22:08;3.93;;;2.13;;
6842;SDS011;3460;52.028;8.916;2022-11-15T14:24:42;3.97;;;2.00;;
6842;SDS011;3460;52.028;8.916;2022-11-15T14:27:20;3.90;;;1.90;;
6842;SDS011;3460;52.028;8.916;2022-11-15T14:29:49;4.97;;;1.90;;
6842;SDS011;3460;52.028;8.916;2022-11-15T14:32:18;3.53;;;1.83;;
6842;SDS011;3460;52.028;8.916;2022-11-15T14:34:46;3.47;;;2.23;;
6842;SDS011;3460;52.028;8.916;2022-11-15T14:37:18;5.43;;;2.50;;
6842;SDS011;3460;52.028;8.916;2022-11-15T14:39:47;5.10;;;2.00;;
6842;SDS011;3460;52.028;8.916;2022-11-15T14:42:14;2.73;;;1.97;;
6842;SDS011;3460;52.028;8.916;2022-11-15T14:44:41;4.53;;;2.10;;
6842;SDS011;3460;52.028;8.916;2022-11-15T14:47:08;2.90;;;1.90;;
6842;SDS011;3460;52.028;8.916;2022-11-15T14:49:36;5.60;;;2.07;;
6842;SDS011;3460;52.028;8.916;2022-11-15T14:52:04;2.73;;;1.90;;
6842;SDS011;3460;52.028;8.916;2022-11-15T14:54:38;7.20;;;2.10;;
6842;SDS011;3460;52.028;8.916;2022-11-15T14:57:05;3.23;;;2.03;;
6842;SDS011;3460;52.028;8.916;2022-11-15T14:59:32;3.83;;;1.80;;
6842;SDS011;3460;52.028;8.916;2022-11-15T15:01:59;3.27;;;1.93;;
6842;SDS011;3460;52.028;8.916;2022-11-15T15:04:25;3.50;;;2.03;;
6842;SDS011;3460;52.028;8.916;2022-11-15T15:06:53;4.23;;;2.10;;
6842;SDS011;3460;52.028;8.916;2022-11-15T15:09:20;2.07;;;1.70;;
6842;SDS011;3460;52.028;8.916;2022-11-15T15:11:48;4.00;;;2.30;;
6842;SDS011;3460;52.028;8.916;2022-11-15T15:14:14;2.93;;;2.10;;
6842;SDS011;3460;52.028;8.916;2022-11-15T15:16:41;2.70;;;1.97;;
6842;SDS011;3460;52.028;8.916;2022-11-15T15:19:09;3.60;;;2.20;;
6842;SDS011;3460;52.028;8.916;2022-11-15T15:21:36;4.40;;;2.03;;
6842;SDS011;3460;52.028;8.916;2022-11-15T15:24:05;4.73;;;2.50;;
6842;SDS011;3460;52.028;8.916;2022-11-15T15:26:34;3.20;;;2.50;;
6842;SDS011;3460;52.028;8.916;2022-11-15T15:29:03;5.70;;;2.50;;
6842;SDS011;3460;52.028;8.916;2022-11-15T15:31:29;6.20;;;3.73;;
6842;SDS011;3460;52.028;8.916;2022-11-15T15:33:57;4.13;;;3.00;;
6842;SDS011;3460;52.028;8.916;2022-11-15T15:36:24;3.60;;;2.90;;
6842;SDS011;3460;52.028;8.916;2022-11-15T15:38:51;4.63;;;2.40;;
6842;SDS011;3460;52.028;8.916;2022-11-15T15:41:19;5.00;;;2.20;;
6842;SDS011;3460;52.028;8.916;2022-11-15T15:43:46;3.07;;;2.23;;
6842;SDS011;3460;52.028;8.916;2022-11-15T15:46:13;3.27;;;2.57;;
6842;SDS011;3460;52.028;8.916;2022-11-15T15:48:41;6.60;;;2.50;;
6842;SDS011;3460;52.028;8.916;2022-11-15T15:51:08;3.63;;;2.40;;
6842;SDS011;3460;52.028;8.916;2022-11-15T15:53:35;3.17;;;2.03;;
6842;SDS011;3460;52.028;8.916;2022-11-15T15:56:02;3.90;;;2.50;;
6842;SDS011;3460;52.028;8.916;2022-11-15T15:58:30;4.53;;;2.60;;
6842;SDS011;3460;52.028;8.916;2022-11-15T16:00:57;4.87;;;2.60;;
6842;SDS011;3460;52.028;8.916;2022-11-15T16:03:24;4.93;;;3.07;;
6842;SDS011;3460;52.028;8.916;2022-11-15T16:05:52;5.37;;;2.27;;